sensor_id;sensor_type;location;lat;lon;timestamp;P1;durP1;ratioP1;P2;durP2;ratioP2
18899;SDS011;9582;52.018;6.306;2023-09-18T00:01:50;29.10;;;25.77;;
18899;SDS011;9582;52.018;6.306;2023-09-18T00:04:17;29.73;;;26.40;;
18899;SDS011;9582;52.018;6.306;2023-09-18T00:06:43;29.08;;;25.88;;
18899;SDS011;9582;52.018;6.306;2023-09-18T00:09:10;29.85;;;25.35;;
18899;SDS011;9582;52.018;6.306;2023-09-18T00:11:38;27.52;;;24.65;;
18899;SDS011;9582;52.018;6.306;2023-09-18T00:14:07;31.85;;;26.55;;
18899;SDS011;9582;52.018;6.306;2023-09-18T00:16:34;29.48;;;26.10;;
18899;SDS011;9582;52.018;6.306;2023-09-18T00:19:01;29.83;;;26.73;;
18899;SDS011;9582;52.018;6.306;2023-09-18T00:21:28;29.35;;;26.15;;
18899;SDS011;9582;52.018;6.306;2023-09-18T00:23:55;29.38;;;26.08;;
18899;SDS011;9582;52.018;6.306;2023-09-18T00:26:22;29.83;;;26.00;;
18899;SDS011;9582;52.018;6.306;2023-09-18T00:28:51;29.88;;;25.60;;
18899;SDS011;9582;52.018;6.306;2023-09-18T00:31:19;29.65;;;24.85;;
18899;SDS011;9582;52.018;6.306;2023-09-18T00:33:46;31.45;;;25.35;;
18899;SDS011;9582;52.018;6.306;2023-09-18T00:36:13;28.48;;;25.42;;
18899;SDS011;9582;52.018;6.306;2023-09-18T00:38:39;30.08;;;26.15;;
18899;SDS011;9582;52.018;6.306;2023-09-18T00:41:06;32.95;;;27.33;;
18899;SDS011;9582;52.018;6.306;2023-09-18T00:43:32;28.60;;;25.38;;
18899;SDS011;9582;52.018;6.306;2023-09-18T00:45:59;32.03;;;26.58;;
18899;SDS011;9582;52.018;6.306;2023-09-18T00:48:28;31.30;;;27.13;;
18899;SDS011;9582;52.018;6.306;2023-09-18T00:50:54;29.05;;;25.88;;
18899;SDS011;9582;52.018;6.306;2023-09-18T00:53:23;32.40;;;26.55;;
18899;SDS011;9582;52.018;6.306;2023-09-18T00:55:51;29.75;;;26.48;;
18899;SDS011;9582;52.018;6.306;2023-09-18T00:58:21;31.00;;;27.08;;
18899;SDS011;9582;52.018;6.306;2023-09-18T01:00:48;30.83;;;26.17;;
18899;SDS011;9582;52.018;6.306;2023-09-18T01:03:16;29.15;;;25.88;;
18899;SDS011;9582;52.018;6.306;2023-09-18T01:05:45;30.65;;;25.50;;
18899;SDS011;9582;52.018;6.306;2023-09-18T01:08:11;29.67;;;24.85;;
18899;SDS011;9582;52.018;6.306;2023-09-18T01:10:40;30.92;;;25.67;;
18899;SDS011;9582;52.018;6.306;2023-09-18T01:13:14;30.10;;;25.25;;
18899;SDS011;9582;52.018;6.306;2023-09-18T01:15:48;28.63;;;25.50;;
18899;SDS011;9582;52.018;6.306;2023-09-18T01:18:18;30.65;;;25.52;;
18899;SDS011;9582;52.018;6.306;2023-09-18T01:20:46;28.70;;;23.70;;
18899;SDS011;9582;52.018;6.306;2023-09-18T01:23:13;27.70;;;24.27;;
18899;SDS011;9582;52.018;6.306;2023-09-18T01:25:40;28.58;;;25.17;;
18899;SDS011;9582;52.018;6.306;2023-09-18T01:28:06;28.52;;;23.95;;
18899;SDS011;9582;52.018;6.306;2023-09-18T01:30:34;29.02;;;24.52;;
18899;SDS011;9582;52.018;6.306;2023-09-18T01:33:00;27.98;;;22.80;;
18899;SDS011;9582;52.018;6.306;2023-09-18T01:35:29;27.30;;;23.70;;
18899;SDS011;9582;52.018;6.306;2023-09-18T01:37:57;30.73;;;24.65;;
18899;SDS011;9582;52.018;6.306;2023-09-18T01:40:27;29.83;;;24.67;;
18899;SDS011;9582;52.018;6.306;2023-09-18T01:42:53;28.15;;;23.98;;
18899;SDS011;9582;52.018;6.306;2023-09-18T01:45:20;28.02;;;23.15;;
18899;SDS011;9582;52.018;6.306;2023-09-18T01:47:46;25.83;;;23.05;;
18899;SDS011;9582;52.018;6.306;2023-09-18T01:50:13;28.75;;;24.02;;
18899;SDS011;9582;52.018;6.306;2023-09-18T01:52:39;28.60;;;21.85;;
18899;SDS011;9582;52.018;6.306;2023-09-18T01:55:08;28.05;;;22.65;;
18899;SDS011;9582;52.018;6.306;2023-09-18T01:57:36;24.98;;;22.33;;
18899;SDS011;9582;52.018;6.306;2023-09-18T02:00:03;28.58;;;22.67;;
18899;SDS011;9582;52.018;6.306;2023-09-18T02:02:37;24.88;;;22.02;;
18899;SDS011;9582;52.018;6.306;2023-09-18T02:05:05;25.05;;;22.17;;
18899;SDS011;9582;52.018;6.306;2023-09-18T02:07:31;25.23;;;22.42;;
18899;SDS011;9582;52.018;6.306;2023-09-18T02:09:58;31.63;;;22.75;;
18899;SDS011;9582;52.018;6.306;2023-09-18T02:12:24;25.30;;;21.55;;
18899;SDS011;9582;52.018;6.306;2023-09-18T02:14:52;27.25;;;22.95;;
18899;SDS011;9582;52.018;6.306;2023-09-18T02:17:22;27.35;;;22.30;;
18899;SDS011;9582;52.018;6.306;2023-09-18T02:19:48;26.83;;;22.33;;
18899;SDS011;9582;52.018;6.306;2023-09-18T02:22:15;26.80;;;22.38;;
18899;SDS011;9582;52.018;6.306;2023-09-18T02:24:41;26.58;;;21.88;;
18899;SDS011;9582;52.018;6.306;2023-09-18T02:27:08;22.77;;;19.63;;
18899;SDS011;9582;52.018;6.306;2023-09-18T02:29:36;25.17;;;20.48;;
18899;SDS011;9582;52.018;6.306;2023-09-18T02:32:04;23.27;;;19.70;;
18899;SDS011;9582;52.018;6.306;2023-09-18T02:34:31;21.02;;;18.80;;
18899;SDS011;9582;52.018;6.306;2023-09-18T02:36:58;24.45;;;18.23;;
18899;SDS011;9582;52.018;6.306;2023-09-18T02:39:25;19.92;;;17.83;;
18899;SDS011;9582;52.018;6.306;2023-09-18T02:41:51;22.95;;;17.50;;
18899;SDS011;9582;52.018;6.306;2023-09-18T02:44:18;19.20;;;16.52;;
18899;SDS011;9582;52.018;6.306;2023-09-18T02:46:44;18.75;;;16.40;;
18899;SDS011;9582;52.018;6.306;2023-09-18T02:49:13;19.55;;;16.50;;
18899;SDS011;9582;52.018;6.306;2023-09-18T02:51:40;18.45;;;15.55;;
18899;SDS011;9582;52.018;6.306;2023-09-18T02:54:06;18.08;;;15.13;;
18899;SDS011;9582;52.018;6.306;2023-09-18T02:56:33;17.98;;;15.02;;
18899;SDS011;9582;52.018;6.306;2023-09-18T02:58:59;20.25;;;15.00;;
18899;SDS011;9582;52.018;6.306;2023-09-18T03:01:26;15.60;;;13.30;;
18899;SDS011;9582;52.018;6.306;2023-09-18T03:03:52;15.95;;;13.57;;
18899;SDS011;9582;52.018;6.306;2023-09-18T03:06:20;15.63;;;13.45;;
18899;SDS011;9582;52.018;6.306;2023-09-18T03:08:47;17.08;;;13.05;;
18899;SDS011;9582;52.018;6.306;2023-09-18T03:11:14;14.18;;;12.18;;
18899;SDS011;9582;52.018;6.306;2023-09-18T03:13:43;15.52;;;11.93;;
18899;SDS011;9582;52.018;6.306;2023-09-18T03:16:11;12.93;;;10.98;;
18899;SDS011;9582;52.018;6.306;2023-09-18T03:18:38;15.93;;;11.43;;
18899;SDS011;9582;52.018;6.306;2023-09-18T03:21:04;13.40;;;10.98;;
18899;SDS011;9582;52.018;6.306;2023-09-18T03:23:32;13.65;;;10.70;;
18899;SDS011;9582;52.018;6.306;2023-09-18T03:25:58;13.93;;;11.48;;
18899;SDS011;9582;52.018;6.306;2023-09-18T03:28:25;14.60;;;11.43;;
18899;SDS011;9582;52.018;6.306;2023-09-18T03:30:52;13.48;;;11.85;;
18899;SDS011;9582;52.018;6.306;2023-09-18T03:33:22;12.15;;;10.93;;
18899;SDS011;9582;52.018;6.306;2023-09-18T03:35:49;15.07;;;11.10;;
18899;SDS011;9582;52.018;6.306;2023-09-18T03:38:20;15.63;;;11.13;;
18899;SDS011;9582;52.018;6.306;2023-09-18T03:40:48;13.40;;;10.55;;
18899;SDS011;9582;52.018;6.306;2023-09-18T03:43:15;11.98;;;10.60;;
18899;SDS011;9582;52.018;6.306;2023-09-18T03:45:42;14.00;;;10.93;;
18899;SDS011;9582;52.018;6.306;2023-09-18T03:48:09;15.80;;;10.40;;
18899;SDS011;9582;52.018;6.306;2023-09-18T03:50:35;12.85;;;10.95;;
18899;SDS011;9582;52.018;6.306;2023-09-18T03:53:02;14.05;;;10.70;;
18899;SDS011;9582;52.018;6.306;2023-09-18T03:55:28;13.95;;;10.60;;
18899;SDS011;9582;52.018;6.306;2023-09-18T03:57:57;14.60;;;10.70;;
18899;SDS011;9582;52.018;6.306;2023-09-18T04:00:26;14.02;;;10.50;;
18899;SDS011;9582;52.018;6.306;2023-09-18T04:02:53;12.90;;;10.70;;
18899;SDS011;9582;52.018;6.306;2023-09-18T04:05:19;14.55;;;10.32;;
18899;SDS011;9582;52.018;6.306;2023-09-18T04:07:46;15.63;;;10.73;;
18899;SDS011;9582;52.018;6.306;2023-09-18T04:10:13;16.05;;;11.25;;
18899;SDS011;9582;52.018;6.306;2023-09-18T04:12:44;13.63;;;10.50;;
18899;SDS011;9582;52.018;6.306;2023-09-18T04:15:14;12.70;;;10.82;;
18899;SDS011;9582;52.018;6.306;2023-09-18T04:17:42;12.68;;;10.25;;
18899;SDS011;9582;52.018;6.306;2023-09-18T04:20:09;15.48;;;10.88;;
18899;SDS011;9582;52.018;6.306;2023-09-18T04:22:36;14.80;;;10.90;;
18899;SDS011;9582;52.018;6.306;2023-09-18T04:25:05;14.57;;;10.60;;
18899;SDS011;9582;52.018;6.306;2023-09-18T04:27:32;16.50;;;10.60;;
18899;SDS011;9582;52.018;6.306;2023-09-18T04:29:58;12.38;;;10.18;;
18899;SDS011;9582;52.018;6.306;2023-09-18T04:32:28;15.02;;;10.65;;
18899;SDS011;9582;52.018;6.306;2023-09-18T04:34:55;15.38;;;10.95;;
18899;SDS011;9582;52.018;6.306;2023-09-18T04:37:22;12.88;;;10.70;;
18899;SDS011;9582;52.018;6.306;2023-09-18T04:39:49;15.02;;;9.90;;
18899;SDS011;9582;52.018;6.306;2023-09-18T04:42:15;15.38;;;10.52;;
18899;SDS011;9582;52.018;6.306;2023-09-18T04:44:42;12.80;;;10.48;;
18899;SDS011;9582;52.018;6.306;2023-09-18T04:47:08;12.52;;;10.13;;
18899;SDS011;9582;52.018;6.306;2023-09-18T04:49:37;13.90;;;10.13;;
18899;SDS011;9582;52.018;6.306;2023-09-18T04:52:03;16.15;;;11.02;;
18899;SDS011;9582;52.018;6.306;2023-09-18T04:54:30;12.32;;;10.20;;
18899;SDS011;9582;52.018;6.306;2023-09-18T04:56:57;15.63;;;10.55;;
18899;SDS011;9582;52.018;6.306;2023-09-18T04:59:24;12.98;;;10.23;;
18899;SDS011;9582;52.018;6.306;2023-09-18T05:01:51;19.02;;;10.95;;
18899;SDS011;9582;52.018;6.306;2023-09-18T05:04:17;11.50;;;9.32;;
18899;SDS011;9582;52.018;6.306;2023-09-18T05:06:45;13.45;;;9.70;;
18899;SDS011;9582;52.018;6.306;2023-09-18T05:09:11;11.10;;;9.88;;
18899;SDS011;9582;52.018;6.306;2023-09-18T05:11:39;11.32;;;8.57;;
18899;SDS011;9582;52.018;6.306;2023-09-18T05:14:07;12.32;;;8.73;;
18899;SDS011;9582;52.018;6.306;2023-09-18T05:16:33;12.48;;;8.38;;
18899;SDS011;9582;52.018;6.306;2023-09-18T05:18:59;12.57;;;8.38;;
18899;SDS011;9582;52.018;6.306;2023-09-18T05:21:27;10.20;;;7.70;;
18899;SDS011;9582;52.018;6.306;2023-09-18T05:23:55;10.50;;;8.27;;
18899;SDS011;9582;52.018;6.306;2023-09-18T05:26:21;13.30;;;8.57;;
18899;SDS011;9582;52.018;6.306;2023-09-18T05:28:49;12.82;;;8.38;;
18899;SDS011;9582;52.018;6.306;2023-09-18T05:31:16;11.68;;;7.70;;
18899;SDS011;9582;52.018;6.306;2023-09-18T05:33:42;11.15;;;7.95;;
18899;SDS011;9582;52.018;6.306;2023-09-18T05:36:09;9.50;;;8.02;;
18899;SDS011;9582;52.018;6.306;2023-09-18T05:38:35;13.07;;;8.55;;
18899;SDS011;9582;52.018;6.306;2023-09-18T05:41:04;11.73;;;8.65;;
18899;SDS011;9582;52.018;6.306;2023-09-18T05:43:31;11.85;;;8.85;;
18899;SDS011;9582;52.018;6.306;2023-09-18T05:45:57;11.20;;;8.00;;
18899;SDS011;9582;52.018;6.306;2023-09-18T05:48:24;12.18;;;8.52;;
18899;SDS011;9582;52.018;6.306;2023-09-18T05:50:50;10.18;;;8.30;;
18899;SDS011;9582;52.018;6.306;2023-09-18T05:53:19;15.00;;;8.45;;
18899;SDS011;9582;52.018;6.306;2023-09-18T05:55:45;12.38;;;8.63;;
18899;SDS011;9582;52.018;6.306;2023-09-18T05:58:13;13.43;;;8.65;;
18899;SDS011;9582;52.018;6.306;2023-09-18T06:00:39;22.20;;;9.63;;
18899;SDS011;9582;52.018;6.306;2023-09-18T06:03:06;13.80;;;9.38;;
18899;SDS011;9582;52.018;6.306;2023-09-18T06:05:36;10.95;;;8.60;;
18899;SDS011;9582;52.018;6.306;2023-09-18T06:08:02;12.95;;;9.02;;
18899;SDS011;9582;52.018;6.306;2023-09-18T06:10:30;11.68;;;8.52;;
18899;SDS011;9582;52.018;6.306;2023-09-18T06:12:57;13.15;;;9.05;;
18899;SDS011;9582;52.018;6.306;2023-09-18T06:15:30;11.50;;;8.90;;
18899;SDS011;9582;52.018;6.306;2023-09-18T06:17:56;11.45;;;8.68;;
18899;SDS011;9582;52.018;6.306;2023-09-18T06:20:23;11.82;;;8.48;;
18899;SDS011;9582;52.018;6.306;2023-09-18T06:22:50;13.35;;;7.60;;
18899;SDS011;9582;52.018;6.306;2023-09-18T06:25:16;11.80;;;7.78;;
18899;SDS011;9582;52.018;6.306;2023-09-18T06:27:42;10.48;;;8.45;;
18899;SDS011;9582;52.018;6.306;2023-09-18T06:30:09;10.60;;;8.32;;
18899;SDS011;9582;52.018;6.306;2023-09-18T06:32:37;11.75;;;7.68;;
18899;SDS011;9582;52.018;6.306;2023-09-18T06:35:04;10.52;;;7.70;;
18899;SDS011;9582;52.018;6.306;2023-09-18T06:37:31;10.05;;;7.10;;
18899;SDS011;9582;52.018;6.306;2023-09-18T06:39:57;8.55;;;6.85;;
18899;SDS011;9582;52.018;6.306;2023-09-18T06:42:24;11.73;;;7.30;;
18899;SDS011;9582;52.018;6.306;2023-09-18T06:44:56;10.93;;;7.38;;
18899;SDS011;9582;52.018;6.306;2023-09-18T06:47:23;15.23;;;8.43;;
18899;SDS011;9582;52.018;6.306;2023-09-18T06:49:51;8.32;;;7.28;;
18899;SDS011;9582;52.018;6.306;2023-09-18T06:52:18;14.88;;;7.43;;
18899;SDS011;9582;52.018;6.306;2023-09-18T06:54:44;10.25;;;7.05;;
18899;SDS011;9582;52.018;6.306;2023-09-18T06:57:10;11.07;;;7.05;;
18899;SDS011;9582;52.018;6.306;2023-09-18T06:59:37;9.15;;;6.85;;
18899;SDS011;9582;52.018;6.306;2023-09-18T07:02:03;11.52;;;7.13;;
18899;SDS011;9582;52.018;6.306;2023-09-18T07:04:30;12.45;;;6.93;;
18899;SDS011;9582;52.018;6.306;2023-09-18T07:06:58;12.10;;;6.38;;
18899;SDS011;9582;52.018;6.306;2023-09-18T07:09:24;8.90;;;6.10;;
18899;SDS011;9582;52.018;6.306;2023-09-18T07:11:51;8.60;;;5.72;;
18899;SDS011;9582;52.018;6.306;2023-09-18T07:14:18;11.55;;;7.00;;
18899;SDS011;9582;52.018;6.306;2023-09-18T07:16:44;10.10;;;5.78;;
18899;SDS011;9582;52.018;6.306;2023-09-18T07:19:11;9.05;;;5.70;;
18899;SDS011;9582;52.018;6.306;2023-09-18T07:21:41;11.70;;;5.90;;
18899;SDS011;9582;52.018;6.306;2023-09-18T07:24:10;9.00;;;5.32;;
18899;SDS011;9582;52.018;6.306;2023-09-18T07:26:42;9.20;;;5.38;;
18899;SDS011;9582;52.018;6.306;2023-09-18T07:29:10;7.95;;;4.82;;
18899;SDS011;9582;52.018;6.306;2023-09-18T07:31:36;8.30;;;5.00;;
18899;SDS011;9582;52.018;6.306;2023-09-18T07:34:02;8.75;;;4.95;;
18899;SDS011;9582;52.018;6.306;2023-09-18T07:36:30;8.30;;;4.93;;
18899;SDS011;9582;52.018;6.306;2023-09-18T07:38:56;6.63;;;4.40;;
18899;SDS011;9582;52.018;6.306;2023-09-18T07:41:24;7.60;;;4.70;;
18899;SDS011;9582;52.018;6.306;2023-09-18T07:43:50;7.18;;;4.55;;
18899;SDS011;9582;52.018;6.306;2023-09-18T07:46:17;9.60;;;4.70;;
18899;SDS011;9582;52.018;6.306;2023-09-18T07:48:43;5.28;;;4.05;;
18899;SDS011;9582;52.018;6.306;2023-09-18T07:51:10;8.88;;;4.60;;
18899;SDS011;9582;52.018;6.306;2023-09-18T07:53:37;5.28;;;4.78;;
18899;SDS011;9582;52.018;6.306;2023-09-18T07:56:03;7.28;;;4.57;;
18899;SDS011;9582;52.018;6.306;2023-09-18T07:58:31;5.28;;;4.40;;
18899;SDS011;9582;52.018;6.306;2023-09-18T08:00:59;5.78;;;4.30;;
18899;SDS011;9582;52.018;6.306;2023-09-18T08:03:25;7.95;;;4.30;;
18899;SDS011;9582;52.018;6.306;2023-09-18T08:05:53;4.75;;;3.67;;
18899;SDS011;9582;52.018;6.306;2023-09-18T08:08:20;7.05;;;4.22;;
18899;SDS011;9582;52.018;6.306;2023-09-18T08:10:48;5.18;;;3.17;;
18899;SDS011;9582;52.018;6.306;2023-09-18T08:13:15;5.85;;;3.42;;
18899;SDS011;9582;52.018;6.306;2023-09-18T08:15:43;6.35;;;3.58;;
18899;SDS011;9582;52.018;6.306;2023-09-18T08:18:10;4.30;;;3.25;;
18899;SDS011;9582;52.018;6.306;2023-09-18T08:20:40;6.75;;;3.40;;
18899;SDS011;9582;52.018;6.306;2023-09-18T08:23:07;5.72;;;3.00;;
18899;SDS011;9582;52.018;6.306;2023-09-18T08:25:34;5.25;;;3.65;;
18899;SDS011;9582;52.018;6.306;2023-09-18T08:28:00;7.15;;;3.40;;
18899;SDS011;9582;52.018;6.306;2023-09-18T08:30:28;4.97;;;2.92;;
18899;SDS011;9582;52.018;6.306;2023-09-18T08:32:56;5.72;;;2.67;;
18899;SDS011;9582;52.018;6.306;2023-09-18T08:35:22;5.15;;;3.15;;
18899;SDS011;9582;52.018;6.306;2023-09-18T08:37:54;4.82;;;2.70;;
18899;SDS011;9582;52.018;6.306;2023-09-18T08:40:20;4.25;;;2.45;;
18899;SDS011;9582;52.018;6.306;2023-09-18T08:42:51;3.45;;;2.25;;
18899;SDS011;9582;52.018;6.306;2023-09-18T08:45:22;4.05;;;2.20;;
18899;SDS011;9582;52.018;6.306;2023-09-18T08:47:52;4.40;;;2.50;;
18899;SDS011;9582;52.018;6.306;2023-09-18T08:50:21;3.55;;;2.17;;
18899;SDS011;9582;52.018;6.306;2023-09-18T08:52:50;4.07;;;2.70;;
18899;SDS011;9582;52.018;6.306;2023-09-18T08:55:17;4.13;;;2.20;;
18899;SDS011;9582;52.018;6.306;2023-09-18T08:57:44;2.40;;;2.20;;
18899;SDS011;9582;52.018;6.306;2023-09-18T09:00:12;3.03;;;2.17;;
18899;SDS011;9582;52.018;6.306;2023-09-18T09:02:42;3.55;;;2.17;;
18899;SDS011;9582;52.018;6.306;2023-09-18T09:05:09;4.15;;;2.30;;
18899;SDS011;9582;52.018;6.306;2023-09-18T09:07:36;3.05;;;1.85;;
18899;SDS011;9582;52.018;6.306;2023-09-18T09:10:03;5.90;;;2.28;;
18899;SDS011;9582;52.018;6.306;2023-09-18T09:12:52;1.95;;;1.85;;
18899;SDS011;9582;52.018;6.306;2023-09-18T09:15:20;2.72;;;2.00;;
18899;SDS011;9582;52.018;6.306;2023-09-18T09:17:47;4.57;;;1.88;;
18899;SDS011;9582;52.018;6.306;2023-09-18T09:20:15;2.65;;;2.10;;
18899;SDS011;9582;52.018;6.306;2023-09-18T09:22:45;2.30;;;2.10;;
18899;SDS011;9582;52.018;6.306;2023-09-18T09:25:21;2.78;;;2.03;;
18899;SDS011;9582;52.018;6.306;2023-09-18T09:27:49;3.75;;;2.22;;
18899;SDS011;9582;52.018;6.306;2023-09-18T09:30:18;2.33;;;1.73;;
18899;SDS011;9582;52.018;6.306;2023-09-18T09:32:47;3.80;;;2.17;;
18899;SDS011;9582;52.018;6.306;2023-09-18T09:35:18;5.63;;;2.40;;
18899;SDS011;9582;52.018;6.306;2023-09-18T09:37:48;4.32;;;2.17;;
18899;SDS011;9582;52.018;6.306;2023-09-18T09:40:15;3.75;;;1.95;;
18899;SDS011;9582;52.018;6.306;2023-09-18T09:42:42;2.60;;;2.03;;
18899;SDS011;9582;52.018;6.306;2023-09-18T09:45:11;5.53;;;2.08;;
18899;SDS011;9582;52.018;6.306;2023-09-18T09:47:40;4.72;;;2.05;;
18899;SDS011;9582;52.018;6.306;2023-09-18T09:50:07;3.33;;;2.15;;
18899;SDS011;9582;52.018;6.306;2023-09-18T09:52:36;3.63;;;2.22;;
18899;SDS011;9582;52.018;6.306;2023-09-18T09:55:18;3.88;;;1.80;;
18899;SDS011;9582;52.018;6.306;2023-09-18T09:57:46;2.33;;;1.90;;
18899;SDS011;9582;52.018;6.306;2023-09-18T10:00:14;3.42;;;2.00;;
18899;SDS011;9582;52.018;6.306;2023-09-18T10:02:50;3.63;;;2.05;;
18899;SDS011;9582;52.018;6.306;2023-09-18T10:05:17;3.30;;;2.20;;
18899;SDS011;9582;52.018;6.306;2023-09-18T10:07:45;3.25;;;2.05;;
18899;SDS011;9582;52.018;6.306;2023-09-18T10:10:12;5.80;;;2.28;;
18899;SDS011;9582;52.018;6.306;2023-09-18T10:12:40;6.30;;;2.20;;
18899;SDS011;9582;52.018;6.306;2023-09-18T10:15:07;3.22;;;2.10;;
18899;SDS011;9582;52.018;6.306;2023-09-18T10:17:36;4.47;;;1.90;;
18899;SDS011;9582;52.018;6.306;2023-09-18T10:20:11;3.08;;;1.90;;
18899;SDS011;9582;52.018;6.306;2023-09-18T10:22:44;3.17;;;1.95;;
18899;SDS011;9582;52.018;6.306;2023-09-18T10:25:13;4.13;;;1.85;;
18899;SDS011;9582;52.018;6.306;2023-09-18T10:27:45;3.05;;;1.98;;
18899;SDS011;9582;52.018;6.306;2023-09-18T10:30:14;3.42;;;2.17;;
18899;SDS011;9582;52.018;6.306;2023-09-18T10:32:43;4.07;;;2.10;;
18899;SDS011;9582;52.018;6.306;2023-09-18T10:35:13;5.95;;;2.13;;
18899;SDS011;9582;52.018;6.306;2023-09-18T10:37:41;4.47;;;2.10;;
18899;SDS011;9582;52.018;6.306;2023-09-18T10:40:08;4.70;;;2.20;;
18899;SDS011;9582;52.018;6.306;2023-09-18T10:42:35;3.08;;;2.00;;
18899;SDS011;9582;52.018;6.306;2023-09-18T10:45:06;3.22;;;1.90;;
18899;SDS011;9582;52.018;6.306;2023-09-18T10:47:35;2.92;;;1.65;;
18899;SDS011;9582;52.018;6.306;2023-09-18T10:50:03;3.38;;;1.95;;
18899;SDS011;9582;52.018;6.306;2023-09-18T10:52:29;4.93;;;2.03;;
18899;SDS011;9582;52.018;6.306;2023-09-18T10:54:56;2.50;;;1.98;;
18899;SDS011;9582;52.018;6.306;2023-09-18T10:57:22;5.13;;;2.92;;
18899;SDS011;9582;52.018;6.306;2023-09-18T10:59:49;3.45;;;2.42;;
18899;SDS011;9582;52.018;6.306;2023-09-18T11:02:17;3.95;;;2.42;;
18899;SDS011;9582;52.018;6.306;2023-09-18T11:04:44;4.75;;;2.60;;
18899;SDS011;9582;52.018;6.306;2023-09-18T11:07:19;4.78;;;2.55;;
18899;SDS011;9582;52.018;6.306;2023-09-18T11:09:46;5.60;;;2.60;;
18899;SDS011;9582;52.018;6.306;2023-09-18T11:12:14;4.43;;;2.22;;
18899;SDS011;9582;52.018;6.306;2023-09-18T11:14:46;6.53;;;2.80;;
18899;SDS011;9582;52.018;6.306;2023-09-18T11:17:34;4.38;;;2.45;;
18899;SDS011;9582;52.018;6.306;2023-09-18T11:20:03;3.65;;;2.70;;
18899;SDS011;9582;52.018;6.306;2023-09-18T11:22:37;3.75;;;2.65;;
18899;SDS011;9582;52.018;6.306;2023-09-18T11:28:04;6.07;;;2.80;;
18899;SDS011;9582;52.018;6.306;2023-09-18T11:30:32;4.57;;;2.47;;
18899;SDS011;9582;52.018;6.306;2023-09-18T11:33:03;5.32;;;2.90;;
18899;SDS011;9582;52.018;6.306;2023-09-18T11:35:31;3.45;;;2.30;;
18899;SDS011;9582;52.018;6.306;2023-09-18T11:38:04;4.63;;;2.95;;
18899;SDS011;9582;52.018;6.306;2023-09-18T11:40:32;3.25;;;2.20;;
18899;SDS011;9582;52.018;6.306;2023-09-18T11:43:19;8.50;;;2.97;;
18899;SDS011;9582;52.018;6.306;2023-09-18T11:45:54;5.65;;;3.00;;
18899;SDS011;9582;52.018;6.306;2023-09-18T11:48:24;4.57;;;2.45;;
18899;SDS011;9582;52.018;6.306;2023-09-18T11:50:53;2.35;;;2.13;;
18899;SDS011;9582;52.018;6.306;2023-09-18T11:53:20;4.20;;;2.30;;
18899;SDS011;9582;52.018;6.306;2023-09-18T11:55:47;5.00;;;2.55;;
18899;SDS011;9582;52.018;6.306;2023-09-18T11:58:13;5.50;;;2.10;;
18899;SDS011;9582;52.018;6.306;2023-09-18T12:00:41;5.40;;;3.17;;
18899;SDS011;9582;52.018;6.306;2023-09-18T12:03:17;5.50;;;2.60;;
18899;SDS011;9582;52.018;6.306;2023-09-18T12:05:52;3.20;;;2.58;;
18899;SDS011;9582;52.018;6.306;2023-09-18T12:08:21;4.47;;;2.20;;
18899;SDS011;9582;52.018;6.306;2023-09-18T12:10:49;5.03;;;2.38;;
18899;SDS011;9582;52.018;6.306;2023-09-18T12:13:16;4.60;;;2.28;;
18899;SDS011;9582;52.018;6.306;2023-09-18T12:15:43;3.88;;;2.30;;
18899;SDS011;9582;52.018;6.306;2023-09-18T12:18:09;4.25;;;2.45;;
18899;SDS011;9582;52.018;6.306;2023-09-18T12:20:38;4.97;;;2.28;;
18899;SDS011;9582;52.018;6.306;2023-09-18T12:23:12;4.47;;;2.35;;
18899;SDS011;9582;52.018;6.306;2023-09-18T12:25:39;6.85;;;2.50;;
18899;SDS011;9582;52.018;6.306;2023-09-18T12:28:06;4.05;;;2.42;;
18899;SDS011;9582;52.018;6.306;2023-09-18T12:30:33;3.67;;;2.65;;
18899;SDS011;9582;52.018;6.306;2023-09-18T12:33:00;5.00;;;3.17;;
18899;SDS011;9582;52.018;6.306;2023-09-18T12:35:29;5.43;;;2.78;;
18899;SDS011;9582;52.018;6.306;2023-09-18T12:37:56;4.57;;;3.30;;
18899;SDS011;9582;52.018;6.306;2023-09-18T12:40:25;3.60;;;2.78;;
18899;SDS011;9582;52.018;6.306;2023-09-18T12:42:53;5.00;;;3.25;;
18899;SDS011;9582;52.018;6.306;2023-09-18T12:45:21;5.28;;;3.10;;
18899;SDS011;9582;52.018;6.306;2023-09-18T12:47:48;6.28;;;3.47;;
18899;SDS011;9582;52.018;6.306;2023-09-18T12:50:15;3.90;;;3.25;;
18899;SDS011;9582;52.018;6.306;2023-09-18T12:52:41;4.00;;;3.60;;
18899;SDS011;9582;52.018;6.306;2023-09-18T12:55:08;7.05;;;3.63;;
18899;SDS011;9582;52.018;6.306;2023-09-18T12:57:47;5.55;;;3.42;;
18899;SDS011;9582;52.018;6.306;2023-09-18T13:00:15;4.20;;;2.95;;
18899;SDS011;9582;52.018;6.306;2023-09-18T13:02:45;5.22;;;2.67;;
18899;SDS011;9582;52.018;6.306;2023-09-18T13:05:11;4.85;;;2.90;;
18899;SDS011;9582;52.018;6.306;2023-09-18T13:07:45;3.45;;;2.80;;
18899;SDS011;9582;52.018;6.306;2023-09-18T13:10:13;4.90;;;2.38;;
18899;SDS011;9582;52.018;6.306;2023-09-18T13:12:41;3.28;;;2.30;;
18899;SDS011;9582;52.018;6.306;2023-09-18T13:15:09;4.60;;;2.72;;
18899;SDS011;9582;52.018;6.306;2023-09-18T13:17:38;4.75;;;3.10;;
18899;SDS011;9582;52.018;6.306;2023-09-18T13:20:12;3.63;;;2.67;;
18899;SDS011;9582;52.018;6.306;2023-09-18T13:22:40;4.80;;;2.83;;
18899;SDS011;9582;52.018;6.306;2023-09-18T13:25:07;2.78;;;2.50;;
18899;SDS011;9582;52.018;6.306;2023-09-18T13:27:36;2.72;;;2.20;;
18899;SDS011;9582;52.018;6.306;2023-09-18T13:30:03;3.47;;;2.20;;
18899;SDS011;9582;52.018;6.306;2023-09-18T13:32:35;4.57;;;2.38;;
18899;SDS011;9582;52.018;6.306;2023-09-18T13:35:02;3.78;;;2.22;;
18899;SDS011;9582;52.018;6.306;2023-09-18T13:37:30;5.05;;;2.60;;
18899;SDS011;9582;52.018;6.306;2023-09-18T13:39:57;4.75;;;2.53;;
18899;SDS011;9582;52.018;6.306;2023-09-18T13:42:26;3.80;;;2.35;;
18899;SDS011;9582;52.018;6.306;2023-09-18T13:44:54;4.93;;;2.65;;
18899;SDS011;9582;52.018;6.306;2023-09-18T13:47:21;3.08;;;2.22;;
18899;SDS011;9582;52.018;6.306;2023-09-18T13:49:49;2.83;;;2.17;;
18899;SDS011;9582;52.018;6.306;2023-09-18T13:52:16;2.95;;;2.45;;
18899;SDS011;9582;52.018;6.306;2023-09-18T13:54:44;4.22;;;2.55;;
18899;SDS011;9582;52.018;6.306;2023-09-18T13:57:16;5.20;;;2.63;;
18899;SDS011;9582;52.018;6.306;2023-09-18T13:59:42;3.05;;;2.33;;
18899;SDS011;9582;52.018;6.306;2023-09-18T14:02:09;3.10;;;2.45;;
18899;SDS011;9582;52.018;6.306;2023-09-18T14:04:36;3.72;;;2.03;;
18899;SDS011;9582;52.018;6.306;2023-09-18T14:07:04;2.53;;;2.10;;
18899;SDS011;9582;52.018;6.306;2023-09-18T14:09:30;3.33;;;2.65;;
18899;SDS011;9582;52.018;6.306;2023-09-18T14:11:57;4.97;;;2.40;;
18899;SDS011;9582;52.018;6.306;2023-09-18T14:14:23;3.10;;;2.28;;
18899;SDS011;9582;52.018;6.306;2023-09-18T14:16:50;2.65;;;2.05;;
18899;SDS011;9582;52.018;6.306;2023-09-18T14:19:17;5.32;;;2.42;;
18899;SDS011;9582;52.018;6.306;2023-09-18T14:21:43;3.25;;;2.40;;
18899;SDS011;9582;52.018;6.306;2023-09-18T14:24:11;2.28;;;1.95;;
18899;SDS011;9582;52.018;6.306;2023-09-18T14:26:37;4.72;;;2.28;;
18899;SDS011;9582;52.018;6.306;2023-09-18T14:29:06;4.53;;;2.67;;
18899;SDS011;9582;52.018;6.306;2023-09-18T14:31:33;3.45;;;2.10;;
18899;SDS011;9582;52.018;6.306;2023-09-18T14:33:59;3.05;;;2.28;;
18899;SDS011;9582;52.018;6.306;2023-09-18T14:36:26;2.97;;;2.25;;
18899;SDS011;9582;52.018;6.306;2023-09-18T14:38:52;2.75;;;2.10;;
18899;SDS011;9582;52.018;6.306;2023-09-18T14:41:21;3.05;;;2.30;;
18899;SDS011;9582;52.018;6.306;2023-09-18T14:43:49;2.75;;;1.92;;
18899;SDS011;9582;52.018;6.306;2023-09-18T14:46:16;2.90;;;2.08;;
18899;SDS011;9582;52.018;6.306;2023-09-18T14:48:43;2.55;;;2.13;;
18899;SDS011;9582;52.018;6.306;2023-09-18T14:51:09;3.38;;;2.13;;
18899;SDS011;9582;52.018;6.306;2023-09-18T14:53:36;3.65;;;2.10;;
18899;SDS011;9582;52.018;6.306;2023-09-18T14:56:03;4.78;;;2.10;;
18899;SDS011;9582;52.018;6.306;2023-09-18T14:58:40;4.00;;;1.80;;